Elk Mound, Wisconsin
Current Conditions -  °F | °C
As of 11:15 AM on Thursday 27 Nov 2014 (Local Time) from KLUM Reporting Station
Clear Clear  
Wind Chill: -2°   Ceiling: Unl
Heat Index:   Visibility: 10mi
Dew Point: -4°   Wind: 5mph
Humidity: 62%   Direction: 270°W
Pressure: 30.47"   Gusts: NA
Location:  44.87°N, 91.69°W
Report Text: KLUM 271715Z AUTO 27004KT 10SM CLR M14/M20 A3047 RMK AO2 T11421201
Loading
Personal Weather Stations






























Interactive Weather Map New forecast layout! Learn more

10-Day Weather Forecast

Advertisements
Track Severe Weather on mobile